Time;durP1;ratioP1;P1;durP2;ratioP2;P2;SDS_P1;SDS_P2;PMS_P1;PMS_P2;Temp;Humidity;BMP_temperature;BMP_pressure;BME280_temperature;BME280_humidity;BME280_pressure;Samples;Min_cycle;Max_cycle;Signal;HPM_P1;HPM_P2
2021/12/01 00:00:19;;;;;;;12.73;3.20;;;4.50;99.90;;;;;;598817;238;26562;-78
2021/12/01 00:02:52;;;;;;;6.17;2.70;;;4.30;99.90;;;;;;600237;239;26617;-78
2021/12/01 00:05:14;;;;;;;4.23;3.00;;;4.30;99.90;;;;;;599446;238;26824;-78
2021/12/01 00:07:42;;;;;;;3.63;2.40;;;4.40;99.90;;;;;;600622;237;26577;-78
2021/12/01 00:10:10;;;;;;;8.13;3.27;;;4.50;99.90;;;;;;599968;239;26632;-78
2021/12/01 00:12:37;;;;;;;7.00;2.83;;;4.50;99.90;;;;;;599349;238;26851;-78
2021/12/01 00:15:05;;;;;;;4.53;2.60;;;4.50;99.90;;;;;;599218;238;26640;-78
2021/12/01 00:17:33;;;;;;;9.03;3.00;;;4.60;99.90;;;;;;599922;239;26875;-78
2021/12/01 00:20:00;;;;;;;7.90;3.13;;;4.80;99.90;;;;;;599625;239;26578;-79
2021/12/01 00:22:27;;;;;;;9.23;2.83;;;5.00;99.90;;;;;;599722;238;26839;-79
2021/12/01 00:24:54;;;;;;;4.30;3.10;;;5.00;99.90;;;;;;599491;238;26596;-78
2021/12/01 00:27:21;;;;;;;4.00;2.90;;;5.00;99.90;;;;;;599438;238;26980;-78
2021/12/01 00:29:50;;;;;;;5.57;2.83;;;5.10;99.90;;;;;;599467;234;26669;-79
2021/12/01 00:32:17;;;;;;;6.77;2.63;;;5.10;99.90;;;;;;599619;238;26595;-78
2021/12/01 00:34:45;;;;;;;7.40;3.03;;;5.10;99.90;;;;;;599611;239;26780;-78
2021/12/01 00:37:12;;;;;;;7.83;3.23;;;5.20;99.90;;;;;;599453;238;26629;-77
2021/12/01 00:39:39;;;;;;;4.90;2.40;;;5.20;99.90;;;;;;599236;238;26894;-78
2021/12/01 00:42:07;;;;;;;4.90;2.90;;;4.70;99.90;;;;;;599165;239;26590;-78
2021/12/01 00:44:35;;;;;;;4.43;2.03;;;4.70;99.90;;;;;;598667;238;26832;-78
2021/12/01 00:47:06;;;;;;;7.77;2.57;;;4.50;99.90;;;;;;598321;238;26783;-78
2021/12/01 00:49:31;;;;;;;4.63;2.73;;;4.50;99.90;;;;;;598662;238;26641;-79
2021/12/01 00:51:59;;;;;;;5.83;2.60;;;4.40;99.90;;;;;;598903;238;26607;-78
2021/12/01 00:54:26;;;;;;;7.27;2.33;;;4.40;99.90;;;;;;598658;239;26581;-78
2021/12/01 00:56:54;;;;;;;11.93;3.00;;;4.70;99.90;;;;;;598340;239;26608;-78
2021/12/01 00:59:21;;;;;;;6.53;3.13;;;4.70;99.90;;;;;;599101;238;26826;-78
2021/12/01 01:01:48;;;;;;;4.63;2.83;;;4.90;99.90;;;;;;598586;239;27251;-78
2021/12/01 01:04:15;;;;;;;6.43;2.57;;;5.10;99.90;;;;;;598377;239;26618;-78
2021/12/01 01:06:43;;;;;;;6.07;2.70;;;5.30;99.90;;;;;;598800;238;26859;-77
2021/12/01 01:09:10;;;;;;;9.17;3.10;;;5.30;99.90;;;;;;598825;239;26623;-78
2021/12/01 01:16:44;;;;;;;7.30;3.30;;;5.10;99.90;;;;;;598813;238;26832;-78
2021/12/01 01:19:12;;;;;;;6.00;2.77;;;5.30;99.90;;;;;;600526;238;26621;-78
2021/12/01 01:21:43;;;;;;;9.50;3.33;;;5.20;99.90;;;;;;601143;238;26660;-78
2021/12/01 01:24:08;;;;;;;9.63;3.23;;;5.10;99.90;;;;;;601387;238;26561;-78
2021/12/01 01:26:35;;;;;;;7.10;3.00;;;5.20;99.90;;;;;;600437;233;26603;-77
2021/12/01 01:29:02;;;;;;;11.87;3.23;;;5.20;99.90;;;;;;601330;239;26823;-78
2021/12/01 01:31:29;;;;;;;11.40;3.47;;;5.20;99.90;;;;;;598674;238;26621;-77
2021/12/01 01:33:57;;;;;;;4.93;2.70;;;5.40;99.90;;;;;;595499;237;26841;-79
2021/12/01 01:36:24;;;;;;;7.53;3.07;;;5.40;99.90;;;;;;595200;241;26552;-78
2021/12/01 01:38:52;;;;;;;9.23;3.97;;;5.40;99.90;;;;;;595077;237;26584;-78
2021/12/01 01:41:19;;;;;;;10.97;4.37;;;5.40;99.90;;;;;;595350;240;26607;-78
2021/12/01 01:43:47;;;;;;;12.33;4.40;;;5.50;99.90;;;;;;599249;238;26634;-78
2021/12/01 01:46:15;;;;;;;6.93;3.40;;;5.50;99.90;;;;;;599403;238;26661;-78
2021/12/01 01:48:54;;;;;;;9.97;4.07;;;5.40;99.90;;;;;;600661;239;26613;-78
2021/12/01 01:51:22;;;;;;;10.83;3.67;;;5.50;99.90;;;;;;598677;240;26646;-78
2021/12/01 01:53:52;;;;;;;9.40;3.67;;;5.60;99.90;;;;;;599328;238;26641;-77
2021/12/01 01:56:17;;;;;;;9.03;3.20;;;5.60;99.90;;;;;;598620;239;26646;-77
2021/12/01 01:58:44;;;;;;;12.50;3.93;;;5.70;99.90;;;;;;598541;239;26614;-77
2021/12/01 02:01:15;;;;;;;11.73;3.30;;;5.80;99.90;;;;;;600301;238;26908;-77
2021/12/01 02:03:40;;;;;;;9.87;3.13;;;5.90;99.90;;;;;;598345;238;26841;-78
2021/12/01 02:06:07;;;;;;;9.67;3.47;;;5.80;99.90;;;;;;598856;239;26922;-77
2021/12/01 02:08:36;;;;;;;12.57;3.77;;;5.70;99.90;;;;;;598173;239;26620;-77
2021/12/01 02:11:03;;;;;;;9.50;3.87;;;5.70;99.90;;;;;;598798;239;26590;-77
2021/12/01 02:13:30;;;;;;;10.07;3.83;;;5.60;99.90;;;;;;598746;238;26835;-78
2021/12/01 02:15:57;;;;;;;6.50;3.00;;;5.70;99.90;;;;;;598755;239;26595;-75
2021/12/01 02:18:24;;;;;;;7.67;3.50;;;5.70;99.90;;;;;;598462;239;26835;-75
2021/12/01 02:20:57;;;;;;;14.53;3.47;;;5.90;99.90;;;;;;599185;239;26548;-75
2021/12/01 02:23:26;;;;;;;11.10;3.67;;;5.60;99.90;;;;;;599590;239;26850;-75
2021/12/01 02:25:52;;;;;;;11.10;3.80;;;5.50;99.90;;;;;;598396;239;26578;-75
2021/12/01 02:28:19;;;;;;;11.63;3.30;;;5.50;99.90;;;;;;599378;238;26851;-75
2021/12/01 02:30:46;;;;;;;10.20;3.97;;;5.40;99.90;;;;;;600778;238;26606;-75
2021/12/01 02:33:13;;;;;;;17.47;4.10;;;5.40;99.90;;;;;;600109;238;26632;-75
2021/12/01 02:35:41;;;;;;;9.87;4.60;;;5.50;99.90;;;;;;599927;237;26646;-75
2021/12/01 02:38:09;;;;;;;12.33;3.97;;;5.50;99.90;;;;;;599737;237;26679;-75
2021/12/01 02:40:36;;;;;;;8.77;3.80;;;5.50;99.90;;;;;;599641;238;27315;-75
2021/12/01 02:43:04;;;;;;;11.03;3.20;;;5.60;99.90;;;;;;598954;239;26634;-75
2021/12/01 02:45:31;;;;;;;16.33;4.03;;;5.90;99.90;;;;;;598732;239;26912;-75
2021/12/01 02:47:58;;;;;;;13.23;4.00;;;6.00;99.90;;;;;;598429;238;26679;-75
2021/12/01 02:50:26;;;;;;;12.03;4.53;;;5.90;99.90;;;;;;599650;238;26637;-75
2021/12/01 02:52:53;;;;;;;7.17;3.60;;;5.80;99.90;;;;;;598896;239;26579;-75
2021/12/01 02:55:21;;;;;;;8.90;3.33;;;5.70;99.90;;;;;;598615;238;26587;-75
2021/12/01 02:57:48;;;;;;;13.20;3.30;;;5.70;99.90;;;;;;598617;239;26856;-75
2021/12/01 03:00:16;;;;;;;12.50;4.43;;;5.60;99.90;;;;;;599551;238;26646;-75
2021/12/01 03:02:43;;;;;;;8.67;3.20;;;5.70;99.90;;;;;;599407;239;26634;-75
2021/12/01 03:05:11;;;;;;;13.97;3.47;;;5.80;99.90;;;;;;599164;239;26591;-75
2021/12/01 03:07:38;;;;;;;13.03;4.00;;;5.70;99.90;;;;;;600439;239;26593;-74
2021/12/01 03:10:05;;;;;;;12.93;3.40;;;5.70;99.90;;;;;;597312;238;26806;-74
2021/12/01 03:12:33;;;;;;;12.33;3.40;;;5.80;99.90;;;;;;594454;237;26544;-75
2021/12/01 03:15:00;;;;;;;6.57;3.47;;;5.80;99.90;;;;;;595544;237;26904;-75
2021/12/01 03:17:27;;;;;;;10.03;3.60;;;5.90;99.90;;;;;;599007;238;26575;-75
2021/12/01 03:19:54;;;;;;;11.07;3.87;;;5.80;99.90;;;;;;598928;238;26846;-75
2021/12/01 03:22:21;;;;;;;11.27;3.63;;;5.90;99.90;;;;;;599087;238;26826;-74
2021/12/01 03:24:49;;;;;;;7.67;3.80;;;5.80;99.90;;;;;;599361;238;26821;-75
2021/12/01 03:27:17;;;;;;;13.77;3.83;;;5.90;99.90;;;;;;599377;239;26595;-74
2021/12/01 03:29:46;;;;;;;7.77;3.67;;;5.90;99.90;;;;;;599040;238;26628;-75
2021/12/01 03:32:14;;;;;;;9.60;3.43;;;5.90;99.90;;;;;;599047;239;27221;-75
2021/12/01 03:34:41;;;;;;;8.77;3.30;;;5.90;99.90;;;;;;600435;239;26595;-74
2021/12/01 03:37:08;;;;;;;8.60;3.33;;;5.90;99.90;;;;;;598607;239;26849;-75
2021/12/01 03:39:36;;;;;;;12.77;3.60;;;5.90;99.90;;;;;;600292;239;26615;-75
2021/12/01 03:42:03;;;;;;;13.47;3.70;;;5.90;99.90;;;;;;601244;237;26685;-75
2021/12/01 03:44:32;;;;;;;10.73;3.30;;;6.00;99.90;;;;;;599936;237;26622;-75
2021/12/01 03:46:59;;;;;;;10.97;3.20;;;6.20;99.90;;;;;;599641;239;26613;-75
2021/12/01 03:49:26;;;;;;;10.80;3.53;;;6.20;99.90;;;;;;599312;238;26686;-75
2021/12/01 03:51:54;;;;;;;10.00;3.67;;;6.20;99.90;;;;;;599735;239;26594;-75
2021/12/01 03:54:20;;;;;;;9.07;3.37;;;6.10;99.90;;;;;;599389;237;26898;-74
2021/12/01 03:56:47;;;;;;;13.93;4.37;;;6.10;99.90;;;;;;599894;239;26622;-75
2021/12/01 03:59:15;;;;;;;12.20;4.43;;;6.20;99.90;;;;;;598759;238;26927;-74
2021/12/01 04:01:42;;;;;;;9.87;4.00;;;6.10;99.90;;;;;;598572;239;26827;-74
2021/12/01 04:04:09;;;;;;;12.93;3.97;;;6.20;99.90;;;;;;598975;239;26600;-75
2021/12/01 04:06:36;;;;;;;12.37;4.23;;;6.10;99.90;;;;;;597984;239;26833;-74
2021/12/01 04:09:03;;;;;;;9.50;3.30;;;6.20;99.90;;;;;;599771;239;26647;-75
2021/12/01 04:11:31;;;;;;;11.43;3.63;;;6.40;99.90;;;;;;599877;238;26813;-76
2021/12/01 04:13:59;;;;;;;10.03;3.83;;;6.20;99.90;;;;;;599193;240;26589;-75
2021/12/01 04:16:27;;;;;;;9.60;3.47;;;6.40;99.90;;;;;;600268;237;26658;-74
2021/12/01 04:18:55;;;;;;;8.37;3.13;;;6.40;99.90;;;;;;598635;238;26613;-74
2021/12/01 04:21:24;;;;;;;11.97;3.93;;;6.40;99.90;;;;;;597624;240;26822;-75
2021/12/01 04:23:49;;;;;;;15.63;3.70;;;6.50;99.90;;;;;;599497;239;26570;-75
2021/12/01 04:26:20;;;;;;;8.30;3.27;;;6.50;99.90;;;;;;600484;238;26849;-75
2021/12/01 04:28:43;;;;;;;11.77;4.20;;;6.40;99.90;;;;;;598809;238;26615;-75
2021/12/01 04:31:11;;;;;;;10.70;4.07;;;6.30;99.90;;;;;;599149;238;26554;-75
2021/12/01 04:33:38;;;;;;;9.97;3.63;;;6.40;99.90;;;;;;598406;239;26588;-75
2021/12/01 04:36:07;;;;;;;11.80;4.23;;;6.40;99.90;;;;;;598593;238;26603;-75
2021/12/01 04:38:34;;;;;;;7.47;3.63;;;6.50;99.90;;;;;;599065;239;26629;-75
2021/12/01 04:41:02;;;;;;;8.50;3.57;;;6.50;99.90;;;;;;598703;239;26931;-75
2021/12/01 04:43:29;;;;;;;12.97;3.70;;;6.40;99.90;;;;;;599189;238;26575;-74
2021/12/01 04:45:59;;;;;;;8.80;3.67;;;6.40;99.90;;;;;;599268;234;26851;-74
2021/12/01 04:48:27;;;;;;;16.30;3.90;;;6.20;99.90;;;;;;598644;238;26823;-75
2021/12/01 04:50:54;;;;;;;13.60;4.03;;;6.30;99.90;;;;;;598347;239;26591;-74
2021/12/01 04:53:22;;;;;;;11.23;4.50;;;6.30;99.90;;;;;;600548;237;26621;-74
2021/12/01 04:55:50;;;;;;;13.93;3.87;;;6.30;99.90;;;;;;599628;238;26690;-74
2021/12/01 04:58:17;;;;;;;10.43;3.60;;;6.30;99.90;;;;;;599989;238;26656;-74
2021/12/01 05:00:44;;;;;;;9.97;3.57;;;6.30;99.90;;;;;;601281;237;26951;-74
2021/12/01 05:03:12;;;;;;;9.90;3.70;;;6.40;99.90;;;;;;596674;238;26840;-75
2021/12/01 05:05:39;;;;;;;9.83;3.57;;;6.60;99.90;;;;;;595096;237;26898;-75
2021/12/01 05:08:06;;;;;;;15.33;4.20;;;6.40;99.90;;;;;;595331;237;26983;-75
2021/12/01 05:10:34;;;;;;;11.93;3.73;;;6.40;99.90;;;;;;594789;239;26596;-74
2021/12/01 05:13:02;;;;;;;13.17;3.73;;;6.40;99.90;;;;;;594682;239;26600;-74
2021/12/01 05:15:30;;;;;;;9.57;3.50;;;6.50;99.90;;;;;;594543;237;26588;-74
2021/12/01 05:17:57;;;;;;;11.07;4.13;;;6.50;99.90;;;;;;596346;238;27486;-74
2021/12/01 05:20:24;;;;;;;10.00;4.03;;;6.40;99.90;;;;;;599177;238;26646;-74
2021/12/01 05:22:51;;;;;;;9.30;3.60;;;6.50;99.90;;;;;;599248;239;26840;-74
2021/12/01 05:25:19;;;;;;;9.27;3.83;;;6.70;99.90;;;;;;600705;239;26589;-74
2021/12/01 05:27:46;;;;;;;13.63;3.80;;;6.60;99.90;;;;;;595588;238;26592;-74
2021/12/01 05:30:14;;;;;;;10.23;3.80;;;6.60;99.90;;;;;;599008;238;26578;-74
2021/12/01 05:32:43;;;;;;;16.10;4.17;;;6.70;99.90;;;;;;600457;238;26575;-75
2021/12/01 05:35:10;;;;;;;9.77;3.50;;;6.90;99.90;;;;;;596504;236;26584;-75
2021/12/01 05:37:37;;;;;;;12.77;3.83;;;6.90;99.90;;;;;;598466;237;26603;-75
2021/12/01 05:40:05;;;;;;;9.20;3.83;;;6.90;99.90;;;;;;599084;238;26587;-74
2021/12/01 05:42:32;;;;;;;7.73;3.63;;;6.90;99.90;;;;;;599013;238;26582;-74
2021/12/01 05:44:59;;;;;;;11.93;3.60;;;6.90;99.90;;;;;;598875;239;26870;-74
2021/12/01 05:47:26;;;;;;;8.40;4.00;;;6.80;99.90;;;;;;599049;237;26595;-74
2021/12/01 05:49:54;;;;;;;9.57;3.87;;;6.90;99.90;;;;;;599092;237;27254;-74
2021/12/01 05:52:21;;;;;;;8.33;3.30;;;7.00;99.90;;;;;;600447;239;26597;-74
2021/12/01 05:54:51;;;;;;;10.83;4.30;;;6.70;99.90;;;;;;598737;240;26539;-74
2021/12/01 05:57:17;;;;;;;9.00;3.60;;;6.70;99.90;;;;;;598962;238;26568;-75
2021/12/01 05:59:45;;;;;;;9.33;3.70;;;6.70;99.90;;;;;;598996;238;26622;-74
2021/12/01 06:02:12;;;;;;;8.07;3.43;;;6.70;99.90;;;;;;599148;239;26859;-75
2021/12/01 06:04:39;;;;;;;7.30;4.20;;;6.70;99.90;;;;;;601917;237;26819;-75
2021/12/01 06:07:06;;;;;;;10.13;4.37;;;6.80;99.90;;;;;;600114;238;26642;-74
2021/12/01 06:09:33;;;;;;;15.00;4.90;;;6.90;99.90;;;;;;600235;238;26636;-74
2021/12/01 06:12:01;;;;;;;6.70;4.27;;;7.00;99.90;;;;;;600692;237;26647;-74
2021/12/01 06:14:30;;;;;;;9.50;4.70;;;6.90;99.90;;;;;;600989;239;26621;-75
2021/12/01 06:16:57;;;;;;;12.40;4.90;;;6.90;99.90;;;;;;597111;238;26847;-74
2021/12/01 06:19:24;;;;;;;8.87;4.20;;;6.90;99.90;;;;;;599460;239;26622;-75
2021/12/01 06:21:51;;;;;;;8.80;4.40;;;6.80;99.90;;;;;;599460;239;27528;-74
2021/12/01 06:24:18;;;;;;;14.57;6.07;;;6.80;99.90;;;;;;600476;238;26642;-74
2021/12/01 06:26:45;;;;;;;8.73;5.20;;;6.80;99.90;;;;;;598243;238;26853;-74
2021/12/01 06:29:12;;;;;;;15.07;6.70;;;6.80;99.90;;;;;;594726;240;26609;-75
2021/12/01 06:31:40;;;;;;;11.83;6.10;;;6.90;99.90;;;;;;597206;237;26596;-75
2021/12/01 06:34:08;;;;;;;8.70;4.63;;;6.80;99.90;;;;;;599339;238;26642;-75
2021/12/01 06:36:35;;;;;;;10.63;5.83;;;6.80;99.90;;;;;;599562;238;26680;-75
2021/12/01 06:39:02;;;;;;;7.20;4.87;;;6.60;99.90;;;;;;600686;239;26642;-74
2021/12/01 06:41:29;;;;;;;8.87;5.40;;;6.60;99.90;;;;;;596499;238;26820;-74
2021/12/01 06:43:56;;;;;;;11.73;5.07;;;6.70;99.90;;;;;;594642;237;26589;-74
2021/12/01 06:46:24;;;;;;;7.43;5.53;;;6.70;99.90;;;;;;594365;240;26829;-74
2021/12/01 06:48:51;;;;;;;8.77;5.03;;;6.50;99.90;;;;;;599505;239;26605;-74
2021/12/01 06:51:18;;;;;;;6.57;5.20;;;6.40;99.90;;;;;;599649;238;26575;-75
2021/12/01 06:53:46;;;;;;;8.00;5.10;;;6.50;99.90;;;;;;595106;240;26593;-74
2021/12/01 06:56:16;;;;;;;7.97;5.63;;;6.70;99.90;;;;;;599020;238;26587;-75
2021/12/01 06:58:41;;;;;;;7.83;4.90;;;6.70;99.90;;;;;;599208;239;26937;-74
2021/12/01 07:01:08;;;;;;;12.40;6.57;;;6.90;99.90;;;;;;600379;238;26558;-74
2021/12/01 07:03:36;;;;;;;7.50;6.30;;;6.60;99.90;;;;;;599056;238;26840;-74
2021/12/01 07:06:03;;;;;;;8.90;5.10;;;6.40;99.90;;;;;;599060;239;26548;-74
2021/12/01 07:08:30;;;;;;;12.97;5.70;;;6.60;99.90;;;;;;599125;238;26856;-74
2021/12/01 07:10:57;;;;;;;7.47;5.67;;;6.70;99.90;;;;;;600416;239;26659;-74
2021/12/01 07:13:24;;;;;;;6.97;5.83;;;6.90;99.90;;;;;;598848;239;26578;-77
2021/12/01 07:15:52;;;;;;;4.90;4.40;;;6.60;99.90;;;;;;601626;238;26613;-75
2021/12/01 07:18:19;;;;;;;6.90;4.93;;;6.60;99.90;;;;;;598600;237;26706;-74
2021/12/01 07:20:47;;;;;;;8.70;5.80;;;6.50;99.90;;;;;;595792;239;26615;-74
2021/12/01 07:23:14;;;;;;;7.33;5.00;;;6.40;99.90;;;;;;599921;238;27145;-74
2021/12/01 07:25:41;;;;;;;7.80;6.07;;;6.40;99.90;;;;;;599580;237;26613;-75
2021/12/01 07:28:08;;;;;;;5.57;5.07;;;6.20;99.90;;;;;;599582;238;26953;-74
2021/12/01 07:30:37;;;;;;;8.20;6.07;;;6.20;99.90;;;;;;599489;235;26630;-75
2021/12/01 07:33:03;;;;;;;8.20;6.20;;;6.40;99.90;;;;;;602250;236;26715;-75
2021/12/01 07:35:30;;;;;;;5.60;5.10;;;6.50;99.90;;;;;;602118;235;26649;-75
2021/12/01 07:37:57;;;;;;;8.23;5.80;;;6.60;99.90;;;;;;602509;232;26922;-75
2021/12/01 07:40:24;;;;;;;6.67;5.87;;;6.60;99.90;;;;;;600070;237;26632;-75
2021/12/01 07:42:52;;;;;;;7.00;6.30;;;6.60;99.90;;;;;;602147;234;26890;-75
2021/12/01 07:45:19;;;;;;;7.13;6.37;;;6.60;99.90;;;;;;603184;235;26626;-75
2021/12/01 07:47:46;;;;;;;7.57;6.77;;;6.60;99.90;;;;;;603756;235;26589;-75
2021/12/01 07:50:15;;;;;;;8.37;6.07;;;6.70;99.90;;;;;;602496;234;26627;-75
2021/12/01 07:52:42;;;;;;;7.07;6.47;;;6.70;99.90;;;;;;603925;233;26581;-75
2021/12/01 07:55:10;;;;;;;7.00;6.33;;;6.90;99.90;;;;;;602348;236;26645;-75
2021/12/01 07:57:38;;;;;;;7.70;6.90;;;6.90;99.90;;;;;;604038;236;26880;-75
2021/12/01 08:00:06;;;;;;;7.57;6.87;;;7.00;99.90;;;;;;604185;234;26600;-75
2021/12/01 08:02:35;;;;;;;8.40;7.57;;;7.10;99.90;;;;;;597281;236;26909;-74
2021/12/01 08:05:00;;;;;;;12.53;7.43;;;7.10;99.90;;;;;;599739;237;26924;-77
2021/12/01 08:07:28;;;;;;;8.07;7.27;;;7.00;99.90;;;;;;599742;236;26719;-77
2021/12/01 08:09:54;;;;;;;8.97;7.20;;;7.00;99.90;;;;;;599573;236;26682;-75
2021/12/01 08:12:22;;;;;;;7.83;7.13;;;7.00;99.90;;;;;;601368;236;26617;-75
2021/12/01 08:14:51;;;;;;;8.03;7.23;;;7.00;99.90;;;;;;602212;237;26585;-74
2021/12/01 08:17:18;;;;;;;8.80;7.90;;;7.00;99.90;;;;;;600531;236;26586;-75
2021/12/01 08:19:46;;;;;;;8.47;7.77;;;7.00;99.90;;;;;;599539;237;26627;-75
2021/12/01 08:22:14;;;;;;;9.17;8.27;;;7.10;99.90;;;;;;602513;234;26582;-75
2021/12/01 08:24:41;;;;;;;9.67;7.93;;;7.10;99.90;;;;;;600720;236;26586;-75
2021/12/01 08:27:08;;;;;;;8.90;8.03;;;7.10;99.90;;;;;;599832;237;26868;-75
2021/12/01 08:29:35;;;;;;;8.20;7.50;;;7.10;99.90;;;;;;610812;234;27293;-75
2021/12/01 08:32:03;;;;;;;8.47;7.63;;;7.10;99.90;;;;;;601387;235;26627;-75
2021/12/01 08:34:30;;;;;;;8.83;8.10;;;7.20;99.90;;;;;;600471;236;26914;-76
2021/12/01 08:36:57;;;;;;;8.00;7.20;;;7.30;99.90;;;;;;605220;236;26636;-75
2021/12/01 08:39:24;;;;;;;7.93;7.23;;;7.30;99.90;;;;;;606335;233;26887;-75
2021/12/01 08:41:52;;;;;;;8.80;8.03;;;7.50;99.90;;;;;;601350;235;26628;-76
2021/12/01 08:44:20;;;;;;;8.70;7.97;;;7.40;99.90;;;;;;600168;235;26618;-76
2021/12/01 08:46:47;;;;;;;7.60;7.00;;;7.40;99.90;;;;;;604212;234;26638;-75
2021/12/01 08:49:15;;;;;;;7.97;7.23;;;7.50;99.90;;;;;;602365;234;26687;-75
2021/12/01 08:51:42;;;;;;;8.23;7.60;;;7.40;99.90;;;;;;602023;236;27338;-75
2021/12/01 08:54:13;;;;;;;9.50;8.67;;;7.50;99.90;;;;;;600011;234;26665;-75
2021/12/01 08:56:36;;;;;;;8.37;7.60;;;7.40;99.90;;;;;;598912;239;26556;-75
2021/12/01 08:59:03;;;;;;;8.20;7.50;;;7.50;99.90;;;;;;600891;236;26685;-75
2021/12/01 09:01:31;;;;;;;7.63;7.03;;;7.50;99.90;;;;;;607310;234;26576;-75
2021/12/01 09:04:00;;;;;;;7.47;6.87;;;7.60;99.90;;;;;;601752;235;26673;-75
2021/12/01 09:06:26;;;;;;;7.83;7.17;;;7.50;99.90;;;;;;602180;237;26637;-75
2021/12/01 09:08:53;;;;;;;7.63;7.00;;;7.50;99.90;;;;;;602742;235;26676;-75
2021/12/01 09:11:20;;;;;;;7.87;7.23;;;7.50;99.90;;;;;;601730;236;26928;-75
2021/12/01 09:13:48;;;;;;;6.27;5.77;;;7.50;99.90;;;;;;598847;238;26586;-75
2021/12/01 09:16:16;;;;;;;7.20;6.50;;;7.60;99.90;;;;;;602711;237;26645;-75
2021/12/01 09:18:43;;;;;;;8.67;7.77;;;7.60;99.90;;;;;;600454;233;26602;-75
2021/12/01 09:21:10;;;;;;;11.83;7.03;;;7.60;99.90;;;;;;604380;237;26886;-75
2021/12/01 09:23:38;;;;;;;8.50;7.70;;;7.60;99.90;;;;;;600955;236;26830;-74
2021/12/01 09:26:05;;;;;;;7.33;6.70;;;7.70;99.90;;;;;;607206;235;26576;-74
2021/12/01 09:28:32;;;;;;;7.70;6.93;;;7.60;99.90;;;;;;599143;239;26831;-75
2021/12/01 09:30:59;;;;;;;6.20;5.70;;;7.80;99.90;;;;;;599124;238;27240;-75
2021/12/01 09:33:28;;;;;;;6.77;6.07;;;7.80;99.90;;;;;;604515;236;26582;-74
2021/12/01 09:35:54;;;;;;;5.97;5.47;;;7.70;99.90;;;;;;601205;236;26586;-73
2021/12/01 09:38:21;;;;;;;6.77;5.83;;;7.80;99.90;;;;;;609776;233;26660;-74
2021/12/01 09:40:49;;;;;;;5.43;5.03;;;7.80;99.90;;;;;;600149;238;26843;-74
2021/12/01 09:43:15;;;;;;;5.70;5.23;;;7.80;99.90;;;;;;601824;234;26656;-74
2021/12/01 09:45:43;;;;;;;5.80;4.93;;;7.80;99.90;;;;;;603529;236;26644;-74
2021/12/01 09:48:10;;;;;;;5.97;5.40;;;7.80;99.90;;;;;;602507;236;26718;-74
2021/12/01 09:50:38;;;;;;;4.73;4.33;;;7.70;99.90;;;;;;599922;237;26625;-73
2021/12/01 09:53:06;;;;;;;5.43;4.93;;;7.70;99.90;;;;;;603927;234;26865;-73
2021/12/01 09:55:33;;;;;;;6.83;5.23;;;7.70;99.90;;;;;;607359;235;26631;-73
2021/12/01 09:58:04;;;;;;;6.53;5.87;;;7.90;99.90;;;;;;609456;234;26933;-73
2021/12/01 10:00:31;;;;;;;4.43;4.13;;;8.00;99.90;;;;;;602073;235;26584;-73
2021/12/01 10:02:58;;;;;;;5.00;4.60;;;7.80;99.90;;;;;;605702;233;27621;-72
2021/12/01 10:05:37;;;;;;;5.13;4.73;;;7.90;99.90;;;;;;599214;239;26630;-75
2021/12/01 10:08:05;;;;;;;6.60;5.13;;;8.00;99.90;;;;;;603995;235;26682;-73
2021/12/01 10:10:32;;;;;;;5.33;4.83;;;8.00;99.90;;;;;;601126;235;26614;-73
2021/12/01 10:12:59;;;;;;;5.07;4.67;;;8.20;99.90;;;;;;607703;235;26630;-73
2021/12/01 10:15:29;;;;;;;5.67;5.17;;;8.10;99.90;;;;;;611128;235;26592;-73
2021/12/01 10:18:08;;;;;;;5.47;4.97;;;8.10;99.90;;;;;;600905;234;26622;-73
2021/12/01 10:20:35;;;;;;;4.87;4.47;;;8.20;99.90;;;;;;600827;237;27241;-72
2021/12/01 10:23:05;;;;;;;4.93;4.53;;;8.20;99.90;;;;;;602476;237;26579;-72
2021/12/01 10:25:32;;;;;;;4.67;4.27;;;8.10;99.90;;;;;;606675;236;26853;-73
2021/12/01 10:28:00;;;;;;;4.67;4.17;;;8.10;99.90;;;;;;609837;236;26607;-73
2021/12/01 10:30:37;;;;;;;3.80;3.50;;;8.10;99.90;;;;;;598705;237;26592;-78
2021/12/01 10:33:09;;;;;;;5.00;4.10;;;8.00;99.90;;;;;;598522;239;26838;-79
2021/12/01 10:35:37;;;;;;;4.27;3.93;;;8.50;99.90;;;;;;598937;239;26620;-81
2021/12/01 10:38:06;;;;;;;4.00;3.70;;;8.70;99.90;;;;;;599133;238;26637;-80
2021/12/01 10:40:32;;;;;;;3.97;3.67;;;8.60;99.90;;;;;;599117;238;26558;-79
2021/12/01 10:43:01;;;;;;;3.40;3.20;;;8.60;99.90;;;;;;599198;238;26627;-77
2021/12/01 10:45:29;;;;;;;3.83;3.57;;;8.30;99.90;;;;;;599215;238;26698;-79
2021/12/01 10:47:57;;;;;;;3.97;3.67;;;8.60;99.90;;;;;;604556;236;26710;-74
2021/12/01 10:50:24;;;;;;;4.47;4.17;;;8.50;99.90;;;;;;611244;233;26847;-75
2021/12/01 10:52:51;;;;;;;4.73;4.33;;;8.60;99.90;;;;;;611282;235;26643;-75
2021/12/01 10:55:19;;;;;;;4.70;4.30;;;8.50;99.90;;;;;;604549;235;27302;-75
2021/12/01 10:57:48;;;;;;;4.33;3.93;;;8.50;99.90;;;;;;599639;238;26631;-75
2021/12/01 11:00:17;;;;;;;4.50;4.10;;;8.30;99.90;;;;;;599547;239;26611;-75
2021/12/01 11:02:45;;;;;;;5.57;4.37;;;8.20;99.90;;;;;;603405;234;26584;-74
2021/12/01 11:05:12;;;;;;;4.43;4.07;;;8.20;99.90;;;;;;604794;235;26658;-74
2021/12/01 11:07:39;;;;;;;4.90;4.53;;;8.10;99.90;;;;;;598415;237;26876;-74
2021/12/01 11:10:08;;;;;;;5.80;5.30;;;8.20;99.90;;;;;;599521;239;26851;-75
2021/12/01 11:12:35;;;;;;;5.20;4.80;;;8.20;99.90;;;;;;599657;239;27041;-74
2021/12/01 11:15:16;;;;;;;5.27;4.77;;;8.00;99.90;;;;;;602898;237;26644;-74
2021/12/01 11:17:43;;;;;;;5.00;4.67;;;8.00;99.90;;;;;;606413;235;26576;-75
2021/12/01 11:20:10;;;;;;;4.80;4.30;;;8.10;99.90;;;;;;606903;235;26809;-75
2021/12/01 11:22:37;;;;;;;4.97;4.57;;;8.10;99.90;;;;;;607363;235;26547;-74
2021/12/01 11:25:15;;;;;;;5.50;3.80;;;8.00;99.90;;;;;;605220;235;26916;-74
2021/12/01 11:27:43;;;;;;;7.70;4.50;;;8.20;99.90;;;;;;609790;235;26572;-74
2021/12/01 11:30:12;;;;;;;9.67;4.37;;;8.20;99.90;;;;;;601834;235;26604;-75
2021/12/01 11:32:39;;;;;;;4.73;4.10;;;8.20;99.90;;;;;;599028;239;26596;-75
2021/12/01 11:35:06;;;;;;;9.83;5.10;;;8.20;99.90;;;;;;599013;239;27248;-75
2021/12/01 11:37:34;;;;;;;5.10;3.83;;;8.10;99.90;;;;;;613089;235;26626;-75
2021/12/01 11:40:01;;;;;;;4.47;4.07;;;8.10;99.90;;;;;;610862;234;26810;-75
2021/12/01 11:42:28;;;;;;;4.20;3.90;;;8.10;99.90;;;;;;610325;236;26610;-74
2021/12/01 11:44:55;;;;;;;4.20;3.80;;;8.30;99.90;;;;;;600469;235;26551;-76
2021/12/01 11:47:22;;;;;;;4.63;4.23;;;8.30;99.90;;;;;;599010;238;26585;-75
2021/12/01 11:49:50;;;;;;;6.03;5.53;;;8.20;99.90;;;;;;599082;239;26607;-77
2021/12/01 11:52:18;;;;;;;4.20;3.80;;;8.20;99.90;;;;;;599004;239;26638;-79
2021/12/01 11:54:45;;;;;;;4.10;3.80;;;8.20;99.90;;;;;;598789;236;26879;-76
2021/12/01 11:57:12;;;;;;;3.63;3.43;;;8.10;99.90;;;;;;599082;239;26654;-76
2021/12/01 11:59:43;;;;;;;3.70;3.50;;;8.10;99.90;;;;;;599962;237;26983;-76
2021/12/01 12:02:24;;;;;;;3.47;3.20;;;8.20;99.90;;;;;;600371;237;26658;-76
2021/12/01 12:04:51;;;;;;;3.53;3.30;;;8.30;99.90;;;;;;601223;237;27088;-76
2021/12/01 12:07:18;;;;;;;3.03;2.83;;;8.40;99.90;;;;;;600535;237;26586;-76
2021/12/01 12:10:10;;;;;;;3.50;3.20;;;8.30;99.90;;;;;;606411;236;27299;-76
2021/12/01 12:13:04;;;;;;;3.30;3.10;;;8.40;99.90;;;;;;606974;236;26648;-75
2021/12/01 12:15:33;;;;;;;4.13;3.30;;;8.40;99.90;;;;;;607880;236;26637;-76
2021/12/01 12:18:00;;;;;;;3.03;2.80;;;8.30;99.90;;;;;;608807;235;26626;-75
2021/12/01 12:20:32;;;;;;;2.87;2.67;;;8.40;99.90;;;;;;600690;236;26560;-75
2021/12/01 12:22:56;;;;;;;2.63;2.43;;;8.40;99.90;;;;;;599775;239;26547;-75
2021/12/01 12:25:34;;;;;;;2.70;2.50;;;8.40;99.90;;;;;;600016;238;26567;-76
2021/12/01 12:28:01;;;;;;;2.67;2.57;;;8.40;99.90;;;;;;600137;239;26583;-75
2021/12/01 12:30:43;;;;;;;2.90;2.70;;;8.20;99.90;;;;;;600411;235;26603;-75
2021/12/01 12:33:15;;;;;;;2.83;2.63;;;8.40;99.90;;;;;;601320;238;26787;-76
2021/12/01 12:35:42;;;;;;;3.07;2.77;;;8.40;99.90;;;;;;600324;238;26829;-75
2021/12/01 12:38:11;;;;;;;3.57;3.27;;;8.40;99.90;;;;;;603898;236;26696;-76
2021/12/01 12:40:37;;;;;;;3.03;2.87;;;8.40;99.90;;;;;;599698;237;26860;-76
2021/12/01 12:43:09;;;;;;;3.00;2.80;;;8.50;99.90;;;;;;600624;239;26662;-76
2021/12/01 12:45:37;;;;;;;3.10;2.90;;;8.70;99.90;;;;;;599456;238;26875;-76
2021/12/01 12:48:21;;;;;;;2.50;2.40;;;8.80;99.90;;;;;;599483;239;26927;-76
2021/12/01 12:50:53;;;;;;;3.30;3.00;;;8.70;99.90;;;;;;602132;236;26664;-75
2021/12/01 12:53:24;;;;;;;2.90;2.70;;;8.70;99.90;;;;;;600309;236;26634;-76
2021/12/01 12:55:50;;;;;;;2.83;2.63;;;8.60;99.90;;;;;;599267;239;26839;-74
2021/12/01 12:58:16;;;;;;;3.00;2.80;;;8.60;99.90;;;;;;600545;236;26668;-75
2021/12/01 13:00:53;;;;;;;3.43;2.40;;;8.60;99.90;;;;;;603111;236;26622;-75
2021/12/01 13:03:31;;;;;;;3.13;2.50;;;8.60;99.90;;;;;;599542;237;26648;-76